Time;durP1;ratioP1;P1;durP2;ratioP2;P2;SDS_P1;SDS_P2;PMS_P1;PMS_P2;Temp;Humidity;BMP_temperature;BMP_pressure;BME280_temperature;BME280_humidity;BME280_pressure;Samples;Min_cycle;Max_cycle;Signal;HPM_P1;HPM_P2
2021/12/25 00:01:21;;;;;;;5.50;4.13;;;;;;;;;;5072209;28;20461;-80
2021/12/25 00:03:49;;;;;;;5.60;4.37;;;;;;;;;;5072902;28;20965;-81
2021/12/25 00:06:16;;;;;;;4.83;4.17;;;;;;;;;;5072015;28;20472;-81
2021/12/25 00:08:43;;;;;;;4.97;3.97;;;;;;;;;;5072537;28;20495;-81
2021/12/25 00:11:11;;;;;;;5.33;3.87;;;;;;;;;;5072052;28;20524;-81
2021/12/25 00:13:38;;;;;;;7.03;4.50;;;;;;;;;;5072789;28;20503;-80
2021/12/25 00:16:06;;;;;;;5.50;3.37;;;;;;;;;;5071777;28;20481;-81
2021/12/25 00:18:34;;;;;;;11.40;4.00;;;;;;;;;;5072641;28;20543;-81
2021/12/25 00:21:02;;;;;;;5.53;4.00;;;;;;;;;;5071910;28;20468;-80
2021/12/25 00:23:29;;;;;;;9.80;5.50;;;;;;;;;;5072282;28;20981;-77
2021/12/25 00:26:00;;;;;;;5.60;4.57;;;;;;;;;;5072567;28;20449;-80
2021/12/25 00:28:49;;;;;;;5.80;4.00;;;;;;;;;;5072390;28;20449;-80
2021/12/25 00:34:05;;;;;;;8.47;4.30;;;;;;;;;;5068123;28;21000;-80
2021/12/25 00:36:32;;;;;;;5.77;4.20;;;;;;;;;;5071109;28;20477;-80
2021/12/25 00:38:59;;;;;;;6.70;5.00;;;;;;;;;;5071448;28;20963;-79
2021/12/25 00:41:26;;;;;;;5.20;3.13;;;;;;;;;;5071883;28;20454;-81
2021/12/25 00:43:54;;;;;;;4.20;3.67;;;;;;;;;;5072552;28;20449;-81
2021/12/25 00:46:21;;;;;;;5.60;4.03;;;;;;;;;;5071275;28;20457;-80
2021/12/25 00:48:49;;;;;;;4.87;4.10;;;;;;;;;;5072118;28;20774;-80
2021/12/25 00:51:17;;;;;;;5.03;4.13;;;;;;;;;;5071068;28;20536;-79
2021/12/25 00:53:44;;;;;;;6.70;4.70;;;;;;;;;;5072130;28;20448;-79
2021/12/25 00:56:12;;;;;;;5.67;3.60;;;;;;;;;;5070824;28;20576;-79
2021/12/25 00:58:39;;;;;;;5.60;3.90;;;;;;;;;;5071882;28;20438;-79
2021/12/25 01:01:06;;;;;;;4.87;3.87;;;;;;;;;;5071243;28;20468;-79
2021/12/25 01:03:33;;;;;;;5.20;4.17;;;;;;;;;;5071851;28;20446;-78
2021/12/25 01:06:00;;;;;;;4.73;3.70;;;;;;;;;;5070517;28;20453;-79
2021/12/25 01:08:29;;;;;;;4.60;3.63;;;;;;;;;;5071978;28;20460;-79
2021/12/25 01:10:56;;;;;;;5.53;3.70;;;;;;;;;;5071502;28;20600;-79
2021/12/25 01:13:26;;;;;;;5.93;3.90;;;;;;;;;;5070892;28;20485;-79
2021/12/25 01:16:07;;;;;;;3.27;2.97;;;;;;;;;;5071546;28;20469;-75
2021/12/25 01:21:50;;;;;;;5.10;3.77;;;;;;;;;;5071394;28;20441;-79
2021/12/25 01:24:48;;;;;;;5.10;3.93;;;;;;;;;;5071031;28;20805;-78
2021/12/25 01:30:08;;;;;;;4.67;3.40;;;;;;;;;;5066838;28;20496;-79
2021/12/25 01:32:58;;;;;;;4.47;3.57;;;;;;;;;;5071720;28;20552;-79
2021/12/25 01:38:23;;;;;;;7.00;4.30;;;;;;;;;;5069679;28;20437;-78
2021/12/25 01:41:01;;;;;;;5.57;4.30;;;;;;;;;;5071134;28;20452;-78
2021/12/25 01:48:58;;;;;;;5.43;4.50;;;;;;;;;;5070995;28;20932;-78
2021/12/25 01:51:25;;;;;;;7.10;4.30;;;;;;;;;;5070915;28;20965;-78
2021/12/25 01:53:52;;;;;;;6.53;4.17;;;;;;;;;;5071263;28;20452;-78
2021/12/25 01:56:20;;;;;;;4.90;4.00;;;;;;;;;;5069901;28;20480;-78
2021/12/25 01:58:48;;;;;;;6.40;4.40;;;;;;;;;;5071136;28;20445;-78
2021/12/25 02:01:15;;;;;;;6.40;3.80;;;;;;;;;;5070357;28;20886;-79
2021/12/25 02:03:42;;;;;;;6.50;4.77;;;;;;;;;;5071000;28;20445;-78
2021/12/25 02:06:11;;;;;;;6.53;4.40;;;;;;;;;;5070128;28;20540;-78
2021/12/25 02:08:38;;;;;;;4.30;3.70;;;;;;;;;;5070874;28;20441;-78
2021/12/25 02:11:06;;;;;;;6.00;4.70;;;;;;;;;;5070269;28;20465;-78
2021/12/25 02:13:34;;;;;;;11.00;4.30;;;;;;;;;;5071088;28;20471;-78
2021/12/25 02:16:06;;;;;;;5.67;3.97;;;;;;;;;;5070057;28;20500;-79
2021/12/25 02:18:54;;;;;;;4.83;3.53;;;;;;;;;;5070958;28;20563;-78
2021/12/25 02:21:26;;;;;;;6.60;4.00;;;;;;;;;;5069996;28;20462;-78
2021/12/25 02:23:54;;;;;;;4.90;4.30;;;;;;;;;;5070910;28;20456;-78
2021/12/25 02:26:24;;;;;;;4.40;3.63;;;;;;;;;;5069452;28;21005;-78
2021/12/25 02:28:51;;;;;;;6.17;4.10;;;;;;;;;;5057530;28;20511;-78
2021/12/25 02:31:18;;;;;;;5.97;4.27;;;;;;;;;;5070173;28;20783;-78
2021/12/25 02:33:45;;;;;;;4.93;3.93;;;;;;;;;;5070846;28;20540;-78
2021/12/25 02:36:13;;;;;;;5.43;4.30;;;;;;;;;;5069762;28;20489;-77
2021/12/25 02:38:42;;;;;;;4.23;3.67;;;;;;;;;;5070828;28;20449;-77
2021/12/25 02:41:09;;;;;;;4.27;3.60;;;;;;;;;;5069667;28;20890;-76
2021/12/25 02:43:37;;;;;;;10.93;4.70;;;;;;;;;;5070689;28;20445;-75
2021/12/25 02:46:05;;;;;;;5.20;4.20;;;;;;;;;;5069400;28;20569;-75
2021/12/25 02:48:33;;;;;;;6.50;4.20;;;;;;;;;;5070498;28;20790;-75
2021/12/25 02:51:01;;;;;;;7.80;4.00;;;;;;;;;;5069565;28;20442;-75
2021/12/25 02:53:28;;;;;;;8.40;4.83;;;;;;;;;;5070518;28;20456;-75
2021/12/25 02:55:56;;;;;;;8.23;5.17;;;;;;;;;;5070194;28;20571;-75
2021/12/25 02:58:24;;;;;;;6.00;4.50;;;;;;;;;;5070269;28;20437;-75
2021/12/25 03:00:52;;;;;;;6.43;4.80;;;;;;;;;;5073457;28;20461;-76
2021/12/25 03:03:19;;;;;;;5.97;4.87;;;;;;;;;;5073348;28;20464;-75
2021/12/25 03:05:47;;;;;;;8.57;5.33;;;;;;;;;;5073427;28;20441;-75
2021/12/25 03:08:14;;;;;;;6.97;5.13;;;;;;;;;;5073558;28;20455;-75
2021/12/25 03:10:41;;;;;;;7.87;5.13;;;;;;;;;;5073456;28;20452;-75
2021/12/25 03:13:30;;;;;;;8.80;4.50;;;;;;;;;;5072982;28;20488;-75
2021/12/25 03:15:57;;;;;;;6.90;4.83;;;;;;;;;;5060026;28;20840;-75
2021/12/25 03:18:25;;;;;;;7.83;4.30;;;;;;;;;;5073581;28;20456;-75
2021/12/25 03:20:53;;;;;;;10.50;5.33;;;;;;;;;;5073419;28;20464;-75
2021/12/25 03:23:21;;;;;;;8.20;4.80;;;;;;;;;;5073242;28;20536;-75
2021/12/25 03:25:49;;;;;;;6.80;4.50;;;;;;;;;;5073247;28;20540;-75
2021/12/25 03:28:18;;;;;;;4.77;4.20;;;;;;;;;;5072588;28;20449;-75
2021/12/25 03:30:46;;;;;;;6.70;5.47;;;;;;;;;;5073398;28;21029;-75
2021/12/25 03:33:14;;;;;;;6.57;4.70;;;;;;;;;;5072748;28;20935;-75
2021/12/25 03:35:42;;;;;;;6.90;4.77;;;;;;;;;;5072748;28;20487;-74
2021/12/25 03:38:10;;;;;;;8.10;5.53;;;;;;;;;;5072486;28;20458;-75
2021/12/25 03:40:37;;;;;;;9.63;5.33;;;;;;;;;;5073391;28;20452;-75
2021/12/25 03:43:04;;;;;;;5.07;4.27;;;;;;;;;;5072284;28;20456;-75
2021/12/25 03:45:33;;;;;;;5.73;4.57;;;;;;;;;;5073393;28;20540;-75
2021/12/25 03:48:08;;;;;;;7.00;4.90;;;;;;;;;;5072385;28;20464;-74
2021/12/25 03:57:36;;;;;;;7.37;4.77;;;;;;;;;;5048382;28;20430;-74
2021/12/25 03:59:10;;;;;;;5.47;4.40;;;;;;;;;;5072058;28;20448;-75
2021/12/25 04:01:46;;;;;;;6.07;5.30;;;;;;;;;;5072683;28;20453;-74
2021/12/25 04:04:18;;;;;;;6.33;4.50;;;;;;;;;;5072498;28;20455;-75
2021/12/25 04:06:49;;;;;;;8.17;5.10;;;;;;;;;;5072520;28;20506;-73
2021/12/25 04:09:24;;;;;;;4.17;3.77;;;;;;;;;;5072540;28;20811;-73
2021/12/25 04:11:51;;;;;;;6.47;4.30;;;;;;;;;;5072705;28;20467;-72
2021/12/25 04:14:18;;;;;;;6.03;5.00;;;;;;;;;;5071730;28;20446;-72
2021/12/25 04:16:47;;;;;;;4.40;3.90;;;;;;;;;;5072312;28;20576;-72
2021/12/25 04:19:14;;;;;;;6.33;5.20;;;;;;;;;;5059305;28;20798;-72
2021/12/25 04:21:50;;;;;;;7.87;4.90;;;;;;;;;;5072353;28;20551;-72
2021/12/25 04:24:17;;;;;;;7.00;4.53;;;;;;;;;;5071966;28;20456;-72
2021/12/25 04:26:45;;;;;;;6.87;4.33;;;;;;;;;;5071524;28;20457;-72
2021/12/25 04:29:32;;;;;;;8.27;5.53;;;;;;;;;;5071937;28;20495;-72
2021/12/25 04:32:29;;;;;;;8.50;5.33;;;;;;;;;;5072058;28;20866;-71
2021/12/25 04:49:32;;;;;;;5.90;4.60;;;;;;;;;;5001566;28;21000;-73
2021/12/25 05:03:01;;;;;;;5.27;3.30;;;;;;;;;;5071951;28;20421;-72
2021/12/25 05:05:31;;;;;;;7.83;4.53;;;;;;;;;;5071964;28;20449;-71
2021/12/25 05:07:58;;;;;;;5.37;3.87;;;;;;;;;;5071884;28;20442;-72
2021/12/25 05:10:25;;;;;;;4.93;3.53;;;;;;;;;;5071427;28;20453;-72
2021/12/25 05:12:52;;;;;;;5.20;4.10;;;;;;;;;;5071410;28;20441;-72
2021/12/25 05:15:19;;;;;;;5.80;3.80;;;;;;;;;;5070945;28;20817;-72
2021/12/25 05:17:47;;;;;;;7.07;4.13;;;;;;;;;;5071210;28;20592;-72
2021/12/25 05:20:14;;;;;;;4.00;3.10;;;;;;;;;;5070651;28;20978;-72
2021/12/25 05:22:42;;;;;;;4.77;3.57;;;;;;;;;;5071215;28;20457;-72
2021/12/25 05:25:10;;;;;;;3.80;3.17;;;;;;;;;;5070557;28;20923;-73
2021/12/25 05:27:37;;;;;;;4.43;3.60;;;;;;;;;;5070994;28;20467;-72
2021/12/25 05:30:05;;;;;;;18.77;3.87;;;;;;;;;;5070854;28;20520;-73
2021/12/25 05:32:32;;;;;;;3.67;3.10;;;;;;;;;;5071179;28;20925;-73
2021/12/25 05:35:00;;;;;;;4.80;3.60;;;;;;;;;;5070781;28;20445;-72
2021/12/25 05:37:28;;;;;;;5.13;3.70;;;;;;;;;;5071125;28;20785;-73
2021/12/25 05:39:56;;;;;;;3.97;3.37;;;;;;;;;;5071366;28;20445;-72
2021/12/25 05:42:24;;;;;;;5.40;3.53;;;;;;;;;;5070868;28;20532;-72
2021/12/25 05:44:51;;;;;;;7.17;3.50;;;;;;;;;;5071218;28;20448;-72
2021/12/25 05:47:18;;;;;;;5.20;3.57;;;;;;;;;;5070308;28;21082;-72
2021/12/25 05:49:46;;;;;;;4.43;3.93;;;;;;;;;;5070886;28;20934;-73
2021/12/25 05:52:13;;;;;;;5.37;4.23;;;;;;;;;;5070474;28;20826;-72
2021/12/25 05:54:40;;;;;;;5.80;3.60;;;;;;;;;;5070766;28;20938;-72
2021/12/25 05:57:09;;;;;;;5.43;3.70;;;;;;;;;;5069984;28;20485;-72
2021/12/25 05:59:36;;;;;;;6.80;4.63;;;;;;;;;;5071148;28;20498;-72
2021/12/25 06:02:03;;;;;;;5.97;4.07;;;;;;;;;;5070553;28;20811;-72
2021/12/25 06:04:30;;;;;;;5.17;4.13;;;;;;;;;;5070744;28;20452;-72
2021/12/25 06:06:58;;;;;;;5.60;3.60;;;;;;;;;;5070555;28;20465;-73
2021/12/25 06:09:25;;;;;;;5.00;4.40;;;;;;;;;;5071151;28;20956;-73
2021/12/25 06:11:52;;;;;;;8.10;5.50;;;;;;;;;;5070499;28;20528;-73
2021/12/25 06:14:21;;;;;;;4.30;3.60;;;;;;;;;;5057062;28;20477;-73
2021/12/25 06:16:49;;;;;;;6.00;4.80;;;;;;;;;;5070390;28;20485;-73
2021/12/25 06:19:16;;;;;;;6.77;5.77;;;;;;;;;;5070233;28;20459;-73
2021/12/25 06:21:44;;;;;;;6.50;5.20;;;;;;;;;;5070599;28;20449;-73
2021/12/25 06:24:13;;;;;;;5.87;4.70;;;;;;;;;;5070392;28;20476;-73
2021/12/25 06:26:40;;;;;;;5.10;4.30;;;;;;;;;;5070389;28;20457;-73
2021/12/25 06:29:08;;;;;;;5.70;4.30;;;;;;;;;;5069913;28;20809;-73
2021/12/25 06:31:36;;;;;;;4.53;3.90;;;;;;;;;;5070509;28;20929;-73
2021/12/25 06:34:05;;;;;;;7.03;4.87;;;;;;;;;;5070714;28;20445;-73
2021/12/25 06:36:32;;;;;;;8.03;4.77;;;;;;;;;;5073852;28;20484;-73
2021/12/25 06:39:00;;;;;;;10.20;5.03;;;;;;;;;;5074029;28;20453;-73
2021/12/25 06:41:28;;;;;;;6.70;4.60;;;;;;;;;;5074564;28;20457;-73
2021/12/25 06:43:55;;;;;;;6.23;4.33;;;;;;;;;;5074270;28;20457;-73
2021/12/25 06:46:22;;;;;;;8.03;5.10;;;;;;;;;;5073417;28;20459;-73
2021/12/25 06:48:51;;;;;;;7.17;4.80;;;;;;;;;;5074197;28;20459;-73
2021/12/25 06:51:18;;;;;;;5.03;4.27;;;;;;;;;;5073542;28;20459;-73
2021/12/25 06:53:45;;;;;;;10.83;4.90;;;;;;;;;;5074441;28;20446;-73
2021/12/25 06:56:12;;;;;;;5.57;4.40;;;;;;;;;;5073260;28;20453;-74
2021/12/25 06:58:40;;;;;;;6.83;4.60;;;;;;;;;;5073872;28;20960;-73
2021/12/25 07:01:07;;;;;;;7.10;5.33;;;;;;;;;;5073561;28;20798;-73
2021/12/25 07:03:34;;;;;;;5.80;4.33;;;;;;;;;;5073959;28;20453;-73
2021/12/25 07:06:03;;;;;;;6.90;5.20;;;;;;;;;;5073109;28;20802;-73
2021/12/25 07:08:30;;;;;;;6.10;4.00;;;;;;;;;;5074225;28;20540;-73
2021/12/25 07:10:57;;;;;;;8.47;5.40;;;;;;;;;;5074176;28;20471;-74
2021/12/25 07:13:24;;;;;;;10.77;5.40;;;;;;;;;;5074004;28;20805;-74
2021/12/25 07:15:51;;;;;;;6.77;5.00;;;;;;;;;;5073233;28;20455;-74
2021/12/25 07:18:18;;;;;;;7.23;4.90;;;;;;;;;;5072945;28;20731;-74
2021/12/25 07:20:48;;;;;;;6.70;4.67;;;;;;;;;;5073916;28;20449;-74
2021/12/25 07:23:17;;;;;;;8.40;5.20;;;;;;;;;;5072698;28;20830;-74
2021/12/25 07:25:44;;;;;;;6.10;4.70;;;;;;;;;;5073029;28;20956;-74
2021/12/25 07:28:12;;;;;;;9.50;4.67;;;;;;;;;;5072933;28;20460;-73
2021/12/25 07:30:39;;;;;;;7.00;4.57;;;;;;;;;;5073695;28;20449;-74
2021/12/25 07:33:06;;;;;;;6.77;4.70;;;;;;;;;;5073045;28;20453;-75
2021/12/25 07:35:33;;;;;;;5.50;4.30;;;;;;;;;;5073152;28;20442;-75
2021/12/25 07:38:00;;;;;;;5.67;4.77;;;;;;;;;;5072537;28;21011;-74
2021/12/25 07:40:29;;;;;;;9.20;5.20;;;;;;;;;;5073603;28;20460;-75
2021/12/25 07:42:56;;;;;;;7.40;4.83;;;;;;;;;;5073399;28;20445;-76
2021/12/25 07:45:23;;;;;;;6.97;5.17;;;;;;;;;;5072134;28;20534;-75
2021/12/25 07:47:57;;;;;;;7.53;5.07;;;;;;;;;;5073247;28;20819;-75
2021/12/25 07:50:25;;;;;;;8.10;4.73;;;;;;;;;;5073192;28;20456;-75
2021/12/25 07:52:52;;;;;;;5.50;5.00;;;;;;;;;;5073093;28;20477;-75
2021/12/25 07:55:19;;;;;;;5.63;3.93;;;;;;;;;;5071933;28;20455;-75
2021/12/25 07:57:48;;;;;;;7.10;3.90;;;;;;;;;;5072638;28;20485;-74
2021/12/25 08:00:15;;;;;;;5.90;4.03;;;;;;;;;;5072678;28;20452;-75
2021/12/25 08:02:43;;;;;;;7.20;5.37;;;;;;;;;;5072753;28;20453;-74
2021/12/25 08:05:11;;;;;;;6.23;5.00;;;;;;;;;;5072164;28;20441;-73
2021/12/25 08:07:38;;;;;;;8.33;4.40;;;;;;;;;;5072901;28;20453;-74
2021/12/25 08:10:13;;;;;;;6.50;4.90;;;;;;;;;;5072601;28;20529;-74
2021/12/25 08:12:41;;;;;;;8.57;5.07;;;;;;;;;;5069972;28;20506;-75
2021/12/25 08:15:10;;;;;;;7.50;4.13;;;;;;;;;;5071934;28;20520;-75
2021/12/25 08:17:37;;;;;;;8.03;4.30;;;;;;;;;;5072800;28;20488;-75
2021/12/25 08:20:05;;;;;;;6.63;4.63;;;;;;;;;;5071850;28;20927;-75
2021/12/25 08:22:32;;;;;;;5.50;3.93;;;;;;;;;;5072778;28;20453;-75
2021/12/25 08:24:59;;;;;;;6.23;4.60;;;;;;;;;;5071720;28;20449;-70
2021/12/25 08:27:26;;;;;;;4.73;3.83;;;;;;;;;;5071961;28;20959;-75
2021/12/25 08:29:54;;;;;;;7.57;4.50;;;;;;;;;;5072198;28;20926;-75
2021/12/25 08:32:23;;;;;;;5.67;4.50;;;;;;;;;;5071659;28;20536;-75
2021/12/25 08:34:50;;;;;;;9.70;4.70;;;;;;;;;;5072183;28;21442;-75
2021/12/25 08:37:21;;;;;;;5.60;4.50;;;;;;;;;;5071153;28;20481;-75
2021/12/25 08:39:48;;;;;;;7.27;4.63;;;;;;;;;;5072020;28;20475;-75
2021/12/25 08:42:15;;;;;;;7.50;5.47;;;;;;;;;;5071561;28;20445;-75
2021/12/25 08:44:54;;;;;;;6.63;4.27;;;;;;;;;;5072158;28;20442;-75
2021/12/25 08:47:22;;;;;;;6.53;4.27;;;;;;;;;;5071146;28;20458;-75
2021/12/25 08:49:49;;;;;;;6.87;4.70;;;;;;;;;;5071808;28;20449;-75
2021/12/25 08:52:18;;;;;;;6.33;5.17;;;;;;;;;;5071323;28;20803;-75
2021/12/25 08:54:48;;;;;;;5.53;4.13;;;;;;;;;;5071927;28;20441;-75
2021/12/25 08:57:15;;;;;;;5.90;4.67;;;;;;;;;;5070244;28;20481;-74
2021/12/25 08:59:43;;;;;;;9.43;5.80;;;;;;;;;;5071810;28;20441;-75
2021/12/25 09:02:13;;;;;;;8.03;5.00;;;;;;;;;;5071405;28;20460;-74
2021/12/25 09:04:42;;;;;;;9.83;4.80;;;;;;;;;;5072023;28;20445;-74
2021/12/25 09:07:10;;;;;;;5.60;4.73;;;;;;;;;;5070710;28;20451;-74
2021/12/25 09:09:37;;;;;;;5.73;4.57;;;;;;;;;;5071912;28;20442;-77
2021/12/25 09:12:05;;;;;;;6.53;4.03;;;;;;;;;;5071217;28;20449;-75
2021/12/25 09:14:32;;;;;;;7.47;4.67;;;;;;;;;;5071561;28;20455;-76
2021/12/25 09:16:59;;;;;;;5.73;4.53;;;;;;;;;;5070465;28;20445;-72
2021/12/25 09:19:26;;;;;;;7.03;5.30;;;;;;;;;;5071831;28;20845;-76
2021/12/25 09:21:55;;;;;;;6.87;5.30;;;;;;;;;;5071332;28;20560;-76
2021/12/25 09:24:22;;;;;;;7.20;4.87;;;;;;;;;;5071011;28;20456;-75
2021/12/25 09:26:49;;;;;;;6.17;4.87;;;;;;;;;;5071057;28;20540;-77
2021/12/25 09:29:17;;;;;;;9.93;6.13;;;;;;;;;;5070749;28;20593;-75
2021/12/25 09:31:44;;;;;;;7.93;5.60;;;;;;;;;;5071422;28;20441;-76
2021/12/25 09:34:11;;;;;;;5.47;4.43;;;;;;;;;;5070625;28;20964;-75
2021/12/25 09:36:38;;;;;;;7.60;5.20;;;;;;;;;;5070635;28;20445;-74
2021/12/25 09:39:07;;;;;;;7.40;5.53;;;;;;;;;;5070504;28;21083;-75
2021/12/25 09:41:35;;;;;;;10.30;6.97;;;;;;;;;;5071193;28;20540;-76
2021/12/25 09:44:03;;;;;;;7.50;5.07;;;;;;;;;;5070375;28;20449;-74
2021/12/25 09:46:30;;;;;;;15.33;7.50;;;;;;;;;;5070534;28;20441;-74
2021/12/25 09:48:57;;;;;;;8.87;6.47;;;;;;;;;;5071287;28;20454;-75
2021/12/25 09:51:24;;;;;;;9.13;7.10;;;;;;;;;;5070950;28;20481;-75
2021/12/25 09:54:01;;;;;;;9.50;6.40;;;;;;;;;;5071221;28;20447;-75
2021/12/25 09:56:30;;;;;;;8.37;6.30;;;;;;;;;;5070736;28;20933;-73
2021/12/25 09:58:58;;;;;;;10.47;5.90;;;;;;;;;;5071039;28;20485;-74
2021/12/25 10:01:35;;;;;;;5.27;4.20;;;;;;;;;;5071217;28;20540;-76
2021/12/25 10:04:03;;;;;;;4.97;3.63;;;;;;;;;;5070260;28;20807;-76
2021/12/25 10:06:31;;;;;;;6.30;4.13;;;;;;;;;;5070477;28;20445;-75
2021/12/25 10:08:58;;;;;;;4.80;3.60;;;;;;;;;;5073033;28;20453;-76
2021/12/25 10:11:26;;;;;;;4.30;3.20;;;;;;;;;;5075256;28;20449;-76
2021/12/25 10:13:56;;;;;;;5.30;3.50;;;;;;;;;;5075000;28;20459;-76
2021/12/25 10:16:24;;;;;;;7.73;4.00;;;;;;;;;;5074480;28;20437;-76
2021/12/25 10:18:52;;;;;;;5.47;3.13;;;;;;;;;;5075030;28;20481;-76
2021/12/25 10:21:21;;;;;;;5.33;4.00;;;;;;;;;;5074330;28;20555;-76
2021/12/25 10:24:03;;;;;;;5.17;2.83;;;;;;;;;;5074654;28;20459;-76
2021/12/25 10:26:30;;;;;;;4.80;3.43;;;;;;;;;;5074510;28;20798;-76
2021/12/25 10:28:59;;;;;;;3.03;2.73;;;;;;;;;;5074963;28;20459;-77
2021/12/25 10:31:31;;;;;;;2.67;1.73;;;;;;;;;;5075123;28;20809;-77
2021/12/25 10:33:58;;;;;;;4.97;2.00;;;;;;;;;;5074789;28;20933;-77
2021/12/25 10:36:26;;;;;;;1.97;1.67;;;;;;;;;;5074974;28;20453;-77
2021/12/25 10:39:01;;;;;;;2.17;1.53;;;;;;;;;;5087714;28;20553;-77
2021/12/25 10:41:29;;;;;;;4.63;1.47;;;;;;;;;;5097954;28;20476;-76
2021/12/25 10:44:11;;;;;;;1.70;1.40;;;;;;;;;;5091512;28;20465;-77
2021/12/25 10:46:48;;;;;;;2.27;1.10;;;;;;;;;;5081890;28;20480;-77
2021/12/25 10:49:16;;;;;;;2.50;1.13;;;;;;;;;;5075239;28;20444;-78
2021/12/25 10:51:43;;;;;;;2.50;1.40;;;;;;;;;;5074746;28;20720;-78
2021/12/25 10:54:13;;;;;;;2.77;1.33;;;;;;;;;;5073858;28;20445;-78
2021/12/25 10:56:41;;;;;;;2.50;1.33;;;;;;;;;;5073840;28;20457;-78
2021/12/25 10:59:10;;;;;;;1.60;1.10;;;;;;;;;;5073225;28;20485;-78
2021/12/25 11:01:38;;;;;;;4.43;2.27;;;;;;;;;;5074209;28;20460;-77
2021/12/25 11:04:25;;;;;;;4.60;1.90;;;;;;;;;;5073890;28;20881;-79
2021/12/25 11:06:52;;;;;;;1.73;1.40;;;;;;;;;;5074037;28;20444;-78
2021/12/25 11:09:19;;;;;;;2.47;1.43;;;;;;;;;;5073573;28;20499;-78
2021/12/25 11:12:06;;;;;;;3.70;1.50;;;;;;;;;;5074170;28;20456;-79
2021/12/25 11:14:33;;;;;;;1.70;1.30;;;;;;;;;;5074043;28;20452;-79
2021/12/25 11:17:21;;;;;;;1.80;0.87;;;;;;;;;;5073094;28;20476;-79
2021/12/25 11:19:57;;;;;;;1.53;1.00;;;;;;;;;;5073074;28;21005;-79
2021/12/25 11:22:26;;;;;;;1.63;1.17;;;;;;;;;;5061581;28;20464;-78
2021/12/25 11:24:54;;;;;;;2.13;1.47;;;;;;;;;;5073195;28;20457;-76
2021/12/25 11:27:22;;;;;;;5.13;1.23;;;;;;;;;;5073269;28;20453;-78
2021/12/25 11:29:50;;;;;;;1.57;0.97;;;;;;;;;;5073639;28;20540;-80
2021/12/25 11:32:21;;;;;;;0.93;0.83;;;;;;;;;;5072952;28;20457;-79
2021/12/25 11:34:51;;;;;;;2.60;0.90;;;;;;;;;;5073347;28;21275;-80
2021/12/25 11:37:19;;;;;;;1.60;0.97;;;;;;;;;;5073302;28;20854;-80
2021/12/25 11:39:51;;;;;;;2.27;1.33;;;;;;;;;;5073195;28;20496;-80
2021/12/25 11:42:19;;;;;;;2.20;1.10;;;;;;;;;;5073086;28;20975;-80
2021/12/25 11:44:51;;;;;;;1.70;1.10;;;;;;;;;;5073270;28;20746;-80
2021/12/25 11:47:31;;;;;;;1.30;1.10;;;;;;;;;;5072750;28;20442;-80
2021/12/25 11:50:00;;;;;;;1.57;1.17;;;;;;;;;;5073122;28;20455;-80
2021/12/25 11:52:32;;;;;;;1.83;1.10;;;;;;;;;;5073457;28;21009;-80
2021/12/25 11:55:20;;;;;;;1.57;1.13;;;;;;;;;;5059912;28;20472;-79
2021/12/25 11:57:51;;;;;;;2.73;1.20;;;;;;;;;;5073249;28;20517;-80
2021/12/25 12:00:35;;;;;;;2.23;1.40;;;;;;;;;;5072905;28;21018;-79
2021/12/25 12:03:03;;;;;;;2.80;1.37;;;;;;;;;;5072974;28;20444;-79
2021/12/25 12:05:32;;;;;;;1.50;1.03;;;;;;;;;;5072671;28;20456;-79
2021/12/25 12:08:02;;;;;;;3.10;1.20;;;;;;;;;;5072250;28;20535;-76
2021/12/25 12:10:48;;;;;;;1.33;1.10;;;;;;;;;;5073020;28;20441;-79
2021/12/25 12:13:16;;;;;;;1.37;0.93;;;;;;;;;;5072364;28;20811;-80
2021/12/25 12:15:47;;;;;;;2.10;0.90;;;;;;;;;;5072080;28;20544;-82
2021/12/25 12:18:34;;;;;;;2.13;1.47;;;;;;;;;;5072360;28;20493;-80
2021/12/25 12:21:08;;;;;;;3.03;1.00;;;;;;;;;;5072162;28;20453;-79
2021/12/25 12:23:43;;;;;;;4.00;2.80;;;;;;;;;;5072800;28;20465;-80
2021/12/25 12:26:12;;;;;;;1.67;1.10;;;;;;;;;;5071670;28;20538;-82
2021/12/25 12:28:47;;;;;;;1.40;1.10;;;;;;;;;;5072467;28;20456;-80
2021/12/25 12:31:32;;;;;;;3.27;1.50;;;;;;;;;;5071402;28;20489;-82
2021/12/25 12:34:00;;;;;;;2.40;2.07;;;;;;;;;;5071615;28;20453;-79
2021/12/25 12:36:29;;;;;;;3.07;2.10;;;;;;;;;;5072230;28;20452;-82
2021/12/25 12:39:11;;;;;;;2.23;1.67;;;;;;;;;;5072227;28;20992;-81
2021/12/25 12:41:42;;;;;;;2.20;1.50;;;;;;;;;;5070296;28;20464;-80
2021/12/25 12:44:10;;;;;;;1.77;1.37;;;;;;;;;;5071892;28;20441;-82
2021/12/25 12:47:04;;;;;;;1.57;1.40;;;;;;;;;;5071395;28;20503;-81
2021/12/25 12:49:34;;;;;;;4.97;1.20;;;;;;;;;;5036365;28;20465;-82
2021/12/25 12:52:23;;;;;;;2.50;1.17;;;;;;;;;;5071196;28;20568;-82
2021/12/25 12:54:51;;;;;;;4.60;1.53;;;;;;;;;;5071719;28;20999;-82
2021/12/25 12:57:19;;;;;;;2.70;1.17;;;;;;;;;;5071663;28;20474;-82
2021/12/25 12:59:46;;;;;;;2.73;1.30;;;;;;;;;;5071857;28;20481;-83
2021/12/25 13:02:14;;;;;;;1.80;1.20;;;;;;;;;;5071310;28;20930;-82
2021/12/25 13:04:45;;;;;;;3.07;1.63;;;;;;;;;;5071778;28;20445;-77
2021/12/25 13:07:13;;;;;;;2.57;1.40;;;;;;;;;;5070862;28;20446;-82
2021/12/25 13:09:48;;;;;;;2.60;1.20;;;;;;;;;;5071222;28;20537;-81
2021/12/25 13:12:32;;;;;;;2.50;1.60;;;;;;;;;;5071562;28;20468;-81
2021/12/25 13:15:00;;;;;;;3.37;1.53;;;;;;;;;;5071351;28;20450;-74
2021/12/25 13:17:28;;;;;;;2.60;1.50;;;;;;;;;;5076550;28;20481;-83
2021/12/25 13:19:55;;;;;;;1.93;1.50;;;;;;;;;;5092055;28;20544;-83
2021/12/25 13:22:22;;;;;;;2.97;1.60;;;;;;;;;;5095297;28;20441;-80
2021/12/25 13:24:55;;;;;;;5.33;2.60;;;;;;;;;;5091116;28;20532;-82
2021/12/25 13:27:23;;;;;;;2.47;1.60;;;;;;;;;;5067657;28;20445;-83
2021/12/25 13:29:50;;;;;;;4.00;1.73;;;;;;;;;;5074344;28;20445;-82
2021/12/25 13:32:27;;;;;;;1.50;1.40;;;;;;;;;;5072557;28;20441;-83
2021/12/25 13:34:54;;;;;;;5.30;1.90;;;;;;;;;;5072191;28;20531;-83
2021/12/25 13:37:21;;;;;;;3.07;2.20;;;;;;;;;;5071889;28;20865;-80
2021/12/25 13:39:48;;;;;;;2.70;2.00;;;;;;;;;;5071877;28;20799;-82
2021/12/25 13:42:18;;;;;;;1.50;1.30;;;;;;;;;;5071036;28;20463;-81
2021/12/25 13:44:46;;;;;;;2.37;1.80;;;;;;;;;;5070631;28;20454;-83
2021/12/25 13:47:18;;;;;;;3.07;1.70;;;;;;;;;;5070977;28;20448;-82
2021/12/25 13:49:46;;;;;;;2.33;1.80;;;;;;;;;;5071130;28;20464;-81
2021/12/25 13:52:14;;;;;;;3.00;2.13;;;;;;;;;;5070877;28;20481;-82
2021/12/25 13:54:44;;;;;;;2.13;1.60;;;;;;;;;;5070828;28;20450;-82
2021/12/25 13:57:12;;;;;;;2.27;1.97;;;;;;;;;;5070776;28;20808;-82
2021/12/25 13:59:40;;;;;;;2.80;2.03;;;;;;;;;;5071195;28;20478;-80
2021/12/25 14:02:09;;;;;;;3.17;2.10;;;;;;;;;;5070486;28;20961;-79
2021/12/25 14:04:36;;;;;;;4.67;2.77;;;;;;;;;;5070831;28;20456;-78
2021/12/25 14:07:04;;;;;;;4.37;2.90;;;;;;;;;;5070710;28;20453;-81
2021/12/25 14:09:32;;;;;;;2.60;2.10;;;;;;;;;;5071322;28;20488;-80
2021/12/25 14:12:00;;;;;;;2.33;2.10;;;;;;;;;;5070654;28;20937;-71
2021/12/25 14:14:28;;;;;;;4.60;2.53;;;;;;;;;;5070975;28;20525;-82
2021/12/25 14:16:57;;;;;;;5.47;2.80;;;;;;;;;;5070806;28;20457;-82
2021/12/25 14:19:26;;;;;;;3.90;2.57;;;;;;;;;;5071390;28;20568;-83
2021/12/25 14:21:54;;;;;;;3.30;2.73;;;;;;;;;;5070537;28;20461;-82
2021/12/25 14:24:21;;;;;;;4.60;2.60;;;;;;;;;;5070649;28;20457;-82
2021/12/25 14:26:48;;;;;;;4.37;2.50;;;;;;;;;;5070613;28;20801;-80
2021/12/25 14:29:23;;;;;;;4.70;2.53;;;;;;;;;;5070031;28;20463;-83
2021/12/25 14:31:50;;;;;;;2.60;2.33;;;;;;;;;;5070964;28;20536;-81
2021/12/25 14:34:19;;;;;;;2.50;2.30;;;;;;;;;;5070515;28;20475;-81
2021/12/25 14:36:48;;;;;;;4.10;3.23;;;;;;;;;;5070397;28;20500;-82
2021/12/25 14:39:17;;;;;;;3.47;2.87;;;;;;;;;;5070020;28;20480;-82
2021/12/25 14:41:45;;;;;;;3.33;2.40;;;;;;;;;;5070617;28;20456;-82
2021/12/25 14:44:16;;;;;;;3.87;2.57;;;;;;;;;;5070214;28;20873;-81
2021/12/25 14:46:43;;;;;;;3.43;2.70;;;;;;;;;;5070397;28;20447;-81
2021/12/25 14:49:10;;;;;;;3.97;2.73;;;;;;;;;;5070319;28;20818;-81
2021/12/25 14:51:39;;;;;;;5.67;3.23;;;;;;;;;;5070667;28;20505;-79
2021/12/25 14:54:06;;;;;;;3.47;3.17;;;;;;;;;;5070323;28;20447;-81
2021/12/25 14:56:34;;;;;;;5.73;3.40;;;;;;;;;;5073316;28;20449;-81
2021/12/25 14:59:02;;;;;;;6.30;3.00;;;;;;;;;;5073312;28;20477;-81
2021/12/25 15:01:31;;;;;;;4.77;3.20;;;;;;;;;;5074476;28;20810;-80
2021/12/25 15:04:02;;;;;;;4.63;3.40;;;;;;;;;;5075463;28;20818;-81
2021/12/25 15:06:30;;;;;;;5.20;3.67;;;;;;;;;;5074070;28;20849;-80
2021/12/25 15:09:06;;;;;;;4.87;3.80;;;;;;;;;;5074043;28;20933;-81
2021/12/25 15:11:36;;;;;;;4.13;3.70;;;;;;;;;;5073935;28;20520;-81
2021/12/25 15:14:04;;;;;;;7.23;4.27;;;;;;;;;;5073505;28;20524;-81
2021/12/25 15:16:35;;;;;;;4.80;4.03;;;;;;;;;;5073765;28;20549;-80
2021/12/25 15:19:02;;;;;;;9.63;5.20;;;;;;;;;;5073411;28;20512;-81
2021/12/25 15:21:29;;;;;;;7.70;5.83;;;;;;;;;;5074006;28;20457;-77
2021/12/25 15:24:10;;;;;;;7.40;5.50;;;;;;;;;;5074057;28;20456;-81
2021/12/25 15:26:41;;;;;;;8.47;6.27;;;;;;;;;;5073654;28;20437;-79
2021/12/25 15:29:08;;;;;;;8.87;6.40;;;;;;;;;;5073104;28;20449;-80
2021/12/25 15:31:36;;;;;;;9.27;6.57;;;;;;;;;;5073492;28;20445;-82
2021/12/25 15:34:07;;;;;;;6.70;6.00;;;;;;;;;;5073312;28;20865;-81
2021/12/25 15:36:41;;;;;;;7.37;6.50;;;;;;;;;;5073371;28;20792;-81
2021/12/25 15:39:11;;;;;;;8.40;5.90;;;;;;;;;;5073210;28;20486;-81
2021/12/25 15:41:39;;;;;;;10.13;7.30;;;;;;;;;;5073304;28;21006;-79
2021/12/25 15:44:06;;;;;;;9.03;7.20;;;;;;;;;;5072583;28;20967;-81
2021/12/25 15:46:33;;;;;;;7.67;6.20;;;;;;;;;;5073101;28;20441;-79